createdAt,value
2022-12-23T00:01:25.013Z,5.90
2022-12-23T00:03:53.673Z,5.10
2022-12-23T00:06:22.310Z,5.37
2022-12-23T00:08:58.213Z,6.30
2022-12-23T00:11:29.389Z,6.70
2022-12-23T00:14:21.132Z,7.23
2022-12-23T00:16:51.448Z,6.30
2022-12-23T00:19:20.128Z,6.33
2022-12-23T00:21:49.433Z,6.27
2022-12-23T00:24:17.674Z,6.73
2022-12-23T00:26:47.339Z,6.70
2022-12-23T00:29:15.716Z,7.00
2022-12-23T00:31:44.512Z,5.50
2022-12-23T00:34:13.340Z,7.40
2022-12-23T00:36:41.932Z,6.23
2022-12-23T00:39:30.560Z,6.47
2022-12-23T00:42:17.824Z,5.90
2022-12-23T00:44:46.225Z,6.27
2022-12-23T00:47:36.115Z,5.63
2022-12-23T00:50:03.713Z,5.83
2022-12-23T00:52:32.274Z,5.90
2022-12-23T00:55:00.784Z,4.97
2022-12-23T00:57:30.581Z,5.50
2022-12-23T00:59:59.152Z,5.50
2022-12-23T01:02:44.853Z,6.93
2022-12-23T01:05:35.959Z,6.40
2022-12-23T01:08:04.660Z,6.17
2022-12-23T01:10:32.927Z,5.87
2022-12-23T01:13:02.728Z,5.23
2022-12-23T01:15:31.409Z,5.93
2022-12-23T01:17:59.985Z,6.00
2022-12-23T01:20:28.375Z,5.87
2022-12-23T01:22:56.781Z,7.30
2022-12-23T01:25:25.156Z,6.33
2022-12-23T01:27:53.579Z,6.10
2022-12-23T01:30:23.411Z,5.13
2022-12-23T01:32:51.833Z,6.23
2022-12-23T01:35:20.226Z,5.43
2022-12-23T01:37:48.929Z,6.27
2022-12-23T01:40:17.397Z,6.43
2022-12-23T01:42:45.136Z,6.60
2022-12-23T01:45:18.375Z,6.60
2022-12-23T01:47:51.445Z,6.27
2022-12-23T01:50:25.069Z,6.23
2022-12-23T01:53:08.007Z,6.83
2022-12-23T01:55:42.374Z,6.20
2022-12-23T01:58:14.892Z,6.30
2022-12-23T02:01:01.127Z,6.67
2022-12-23T02:03:43.511Z,6.53
2022-12-23T02:06:33.488Z,6.37
2022-12-23T02:09:20.133Z,6.27
2022-12-23T02:12:18.134Z,6.20
2022-12-23T02:15:20.354Z,6.30
2022-12-23T02:18:02.348Z,6.83
2022-12-23T02:20:56.151Z,6.40
2022-12-23T02:23:53.705Z,6.17
2022-12-23T02:26:54.429Z,5.83
2022-12-23T02:29:52.033Z,6.00
2022-12-23T02:32:29.484Z,6.13
2022-12-23T02:35:03.464Z,6.37
2022-12-23T02:37:36.809Z,5.50
2022-12-23T02:40:12.875Z,6.33
2022-12-23T02:42:47.430Z,6.23
2022-12-23T02:45:19.821Z,5.07
2022-12-23T02:47:53.559Z,5.40
2022-12-23T02:50:29.361Z,5.60
2022-12-23T02:53:01.323Z,5.67
2022-12-23T02:55:33.544Z,5.57
2022-12-23T02:58:04.520Z,5.13
2022-12-23T03:00:33.083Z,5.50
2022-12-23T03:03:03.319Z,6.20
2022-12-23T03:05:39.089Z,6.13
2022-12-23T03:08:11.894Z,5.63
2022-12-23T03:10:50.439Z,5.63
2022-12-23T03:13:29.671Z,4.70
2022-12-23T03:16:13.063Z,5.93
2022-12-23T03:18:54.846Z,5.33
2022-12-23T03:21:29.573Z,5.73
2022-12-23T03:24:07.036Z,4.90
2022-12-23T03:26:40.165Z,5.23
2022-12-23T03:29:15.868Z,4.90
2022-12-23T03:31:45.682Z,5.63
2022-12-23T03:34:20.794Z,5.60
2022-12-23T03:36:51.529Z,6.20
2022-12-23T03:39:23.129Z,4.60
2022-12-23T03:41:56.980Z,6.33
2022-12-23T03:44:31.212Z,6.13
2022-12-23T03:47:05.857Z,6.47
2022-12-23T03:49:39.344Z,6.93
2022-12-23T03:52:14.628Z,6.23
2022-12-23T03:54:52.801Z,7.50
2022-12-23T03:57:22.898Z,8.40
2022-12-23T03:59:51.859Z,8.17
2022-12-23T04:02:25.833Z,8.00
2022-12-23T04:05:17.464Z,9.07
2022-12-23T04:07:50.224Z,9.10
2022-12-23T04:10:18.663Z,9.10
2022-12-23T04:12:47.189Z,9.57
2022-12-23T04:15:20.592Z,8.73
2022-12-23T04:17:49.612Z,10.10
2022-12-23T04:20:19.450Z,9.73
2022-12-23T04:22:48.252Z,9.90
2022-12-23T04:25:18.012Z,10.30
2022-12-23T04:27:46.447Z,10.53
2022-12-23T04:30:15.133Z,9.93
2022-12-23T04:32:44.122Z,8.83
2022-12-23T04:35:13.129Z,8.97
2022-12-23T04:37:42.733Z,8.37
2022-12-23T04:40:11.499Z,9.93
2022-12-23T04:42:39.939Z,9.43
2022-12-23T04:45:09.096Z,8.70
2022-12-23T04:47:37.392Z,9.20
2022-12-23T04:50:06.145Z,8.70
2022-12-23T04:52:34.839Z,8.53
2022-12-23T04:55:04.672Z,9.53
2022-12-23T04:57:33.037Z,9.97
2022-12-23T05:00:01.256Z,9.80
2022-12-23T05:02:30.110Z,8.43
2022-12-23T05:04:58.420Z,8.87
2022-12-23T05:07:26.841Z,8.50
2022-12-23T05:09:55.179Z,8.70
2022-12-23T05:12:25.207Z,7.63
2022-12-23T05:14:53.571Z,6.70
2022-12-23T05:17:21.990Z,6.80
2022-12-23T05:19:50.416Z,6.90
2022-12-23T05:22:18.801Z,6.17
2022-12-23T05:24:47.390Z,5.57
2022-12-23T05:27:15.800Z,6.30
2022-12-23T05:29:45.455Z,5.80
2022-12-23T05:32:14.132Z,5.87
2022-12-23T05:34:42.521Z,5.80
2022-12-23T05:37:10.848Z,6.53
2022-12-23T05:39:39.226Z,7.03
2022-12-23T05:42:08.026Z,7.43
2022-12-23T05:44:36.495Z,8.50
2022-12-23T05:47:06.158Z,7.43
2022-12-23T05:49:34.545Z,7.50
2022-12-23T05:52:03.237Z,9.13
2022-12-23T05:54:31.652Z,9.27
2022-12-23T05:57:00.071Z,9.77
2022-12-23T05:59:31.216Z,9.43
2022-12-23T06:02:00.251Z,9.53
2022-12-23T06:04:30.045Z,9.77
2022-12-23T06:06:58.513Z,9.90
2022-12-23T06:09:26.784Z,9.70
2022-12-23T06:11:55.436Z,10.17
2022-12-23T06:14:28.520Z,10.90
2022-12-23T06:16:57.351Z,9.40
2022-12-23T06:19:26.052Z,11.07
2022-12-23T06:21:55.824Z,10.13
2022-12-23T06:24:24.451Z,10.00
2022-12-23T06:26:57.072Z,10.57
2022-12-23T06:29:25.999Z,10.97
2022-12-23T06:31:54.742Z,10.33
2022-12-23T06:34:23.237Z,10.53
2022-12-23T06:36:51.796Z,10.63
2022-12-23T06:39:21.557Z,11.00
2022-12-23T06:41:50.036Z,10.13
2022-12-23T06:44:18.366Z,10.93
2022-12-23T06:46:46.738Z,10.73
2022-12-23T06:49:15.088Z,10.87
2022-12-23T06:51:43.821Z,10.60
2022-12-23T06:54:12.968Z,11.30
2022-12-23T06:56:42.529Z,10.63
2022-12-23T06:59:10.913Z,11.03
2022-12-23T07:01:40.701Z,11.30
2022-12-23T07:04:10.404Z,11.07
2022-12-23T07:06:39.595Z,10.83
2022-12-23T07:09:08.313Z,12.33
2022-12-23T07:11:37.109Z,10.70
2022-12-23T07:14:06.784Z,10.63
2022-12-23T07:16:35.086Z,11.80
2022-12-23T07:19:03.662Z,11.50
2022-12-23T07:21:32.003Z,11.90
2022-12-23T07:24:00.424Z,11.60
2022-12-23T07:26:28.857Z,12.37
2022-12-23T07:28:57.376Z,12.43
2022-12-23T07:31:27.311Z,13.30
2022-12-23T07:33:55.745Z,12.77
2022-12-23T07:36:24.136Z,12.60
2022-12-23T07:38:52.815Z,12.70
2022-12-23T07:41:21.532Z,12.70
2022-12-23T07:43:49.964Z,12.10
2022-12-23T07:46:18.415Z,13.07
2022-12-23T07:48:48.001Z,12.07
2022-12-23T07:51:16.580Z,12.60
2022-12-23T07:53:44.957Z,13.13
2022-12-23T07:56:13.224Z,12.63
2022-12-23T07:58:41.657Z,12.83
2022-12-23T08:01:10.096Z,12.20
2022-12-23T08:03:38.684Z,12.13
2022-12-23T08:06:12.407Z,11.80
2022-12-23T08:08:41.721Z,11.87
2022-12-23T08:11:11.771Z,11.83
2022-12-23T08:13:42.257Z,11.10
2022-12-23T08:16:11.106Z,10.63
2022-12-23T08:18:41.125Z,10.83
2022-12-23T08:21:15.822Z,9.73
2022-12-23T08:23:44.267Z,10.90
2022-12-23T08:26:14.723Z,10.07
2022-12-23T08:28:44.488Z,9.57
2022-12-23T08:31:15.103Z,9.10
2022-12-23T08:33:45.267Z,9.17
2022-12-23T08:36:23.165Z,9.80
2022-12-23T08:38:52.804Z,8.27
2022-12-23T08:41:22.685Z,9.57
2022-12-23T08:43:51.361Z,9.67
2022-12-23T08:46:19.847Z,10.67
2022-12-23T08:48:49.640Z,10.20
2022-12-23T08:51:21.679Z,10.27
2022-12-23T08:53:52.497Z,10.77
2022-12-23T08:56:25.699Z,10.47
2022-12-23T08:58:55.251Z,10.60
2022-12-23T09:01:25.905Z,11.23
2022-12-23T09:03:54.960Z,11.13
2022-12-23T09:06:29.412Z,11.37
2022-12-23T09:08:59.441Z,11.97
2022-12-23T09:11:29.515Z,11.63
2022-12-23T09:13:59.520Z,11.97
2022-12-23T09:16:28.272Z,10.67
2022-12-23T09:18:57.174Z,11.10
2022-12-23T09:21:27.068Z,10.97
2022-12-23T09:23:55.404Z,11.17
2022-12-23T09:26:25.418Z,12.37
2022-12-23T09:28:54.549Z,13.00
2022-12-23T09:31:30.701Z,13.43
2022-12-23T09:34:02.710Z,14.30
2022-12-23T09:36:32.348Z,13.53
2022-12-23T09:39:00.843Z,13.47
2022-12-23T09:41:48.737Z,14.17
2022-12-23T09:44:38.144Z,15.50
2022-12-23T09:47:11.412Z,17.63
2022-12-23T09:49:45.147Z,21.73
2022-12-23T09:52:21.550Z,24.10
2022-12-23T09:54:53.521Z,28.30
2022-12-23T09:57:24.937Z,28.37
2022-12-23T10:00:09.171Z,29.67
2022-12-23T10:02:48.112Z,32.33
2022-12-23T10:05:26.918Z,31.47
2022-12-23T10:08:00.911Z,28.07
2022-12-23T10:10:35.443Z,29.53
2022-12-23T10:13:06.780Z,30.03
2022-12-23T10:15:38.510Z,30.03
2022-12-23T10:18:19.126Z,28.70
2022-12-23T10:20:53.850Z,27.97
2022-12-23T10:23:30.931Z,25.83
2022-12-23T10:25:59.422Z,26.83
2022-12-23T10:28:29.782Z,29.77
2022-12-23T10:31:30.917Z,30.90
2022-12-23T10:34:01.547Z,28.77
2022-12-23T10:36:40.422Z,30.20
2022-12-23T10:39:22.260Z,28.70
2022-12-23T10:42:01.476Z,29.07
2022-12-23T10:44:57.063Z,30.40
2022-12-23T10:47:34.282Z,30.17
2022-12-23T10:50:13.675Z,31.77
2022-12-23T10:52:45.640Z,31.70
2022-12-23T10:55:28.532Z,33.53
2022-12-23T10:58:07.820Z,34.33
2022-12-23T11:00:40.905Z,30.27
2022-12-23T11:03:17.988Z,30.33
2022-12-23T11:05:49.793Z,31.40
2022-12-23T11:08:19.511Z,27.17
2022-12-23T11:10:49.397Z,26.27
2022-12-23T11:13:35.595Z,25.40
2022-12-23T11:16:24.145Z,26.73
2022-12-23T11:18:58.292Z,24.67
2022-12-23T11:21:27.361Z,25.27
2022-12-23T11:24:11.362Z,25.27
2022-12-23T11:26:41.240Z,25.00
2022-12-23T11:29:15.384Z,20.97
2022-12-23T11:31:45.268Z,20.70
2022-12-23T11:34:18.709Z,18.83
2022-12-23T11:36:56.514Z,15.27
2022-12-23T11:39:30.146Z,14.23
2022-12-23T11:42:08.222Z,12.97
2022-12-23T11:44:40.335Z,11.27
2022-12-23T11:47:29.285Z,15.50
2022-12-23T11:49:59.689Z,15.63
2022-12-23T11:52:29.200Z,14.63
2022-12-23T11:54:58.410Z,11.80
2022-12-23T11:57:38.825Z,11.80
2022-12-23T12:00:09.626Z,11.83
2022-12-23T12:02:41.849Z,10.53
2022-12-23T12:05:22.560Z,9.37
2022-12-23T12:07:51.901Z,7.27
2022-12-23T12:10:23.325Z,5.97
2022-12-23T12:12:57.504Z,5.37
2022-12-23T12:15:32.560Z,5.60
2022-12-23T12:18:01.834Z,6.75
2022-12-23T12:20:34.748Z,7.67
2022-12-23T12:23:07.646Z,7.40
2022-12-23T12:25:42.657Z,6.53
2022-12-23T12:28:16.782Z,4.43
2022-12-23T12:30:51.283Z,4.30
2022-12-23T12:33:24.639Z,3.57
2022-12-23T12:36:09.106Z,4.10
2022-12-23T12:38:40.491Z,3.87
2022-12-23T12:41:15.295Z,4.00
2022-12-23T12:43:49.715Z,3.80
2022-12-23T12:46:32.102Z,3.70
2022-12-23T12:49:04.803Z,4.43
2022-12-23T12:51:38.229Z,3.40
2022-12-23T12:54:15.419Z,4.13
2022-12-23T12:56:49.606Z,4.07
2022-12-23T12:59:21.683Z,3.33
2022-12-23T13:02:12.546Z,4.07
2022-12-23T13:05:12.502Z,4.25
2022-12-23T13:07:48.211Z,4.05
2022-12-23T13:10:30.058Z,3.77
2022-12-23T13:13:06.408Z,4.03
2022-12-23T13:15:42.474Z,4.32
2022-12-23T13:18:24.037Z,5.15
2022-12-23T13:20:58.844Z,4.82
2022-12-23T13:23:43.638Z,5.30
2022-12-23T13:26:20.980Z,4.50
2022-12-23T13:28:58.934Z,5.57
2022-12-23T13:31:38.927Z,4.18
2022-12-23T13:34:17.720Z,4.53
2022-12-23T13:36:53.299Z,5.10
2022-12-23T13:39:37.807Z,6.82
2022-12-23T13:42:09.068Z,5.75
2022-12-23T13:44:37.615Z,6.30
2022-12-23T13:47:16.545Z,7.78
2022-12-23T13:49:59.010Z,7.28
2022-12-23T13:52:38.873Z,8.05
2022-12-23T13:55:21.254Z,6.83
2022-12-23T13:57:56.910Z,7.65
2022-12-23T14:00:28.862Z,7.72
2022-12-23T14:03:24.282Z,9.85
2022-12-23T14:05:53.372Z,6.75
2022-12-23T14:08:28.246Z,7.00
2022-12-23T14:10:59.921Z,9.77
2022-12-23T14:13:31.318Z,8.75
2022-12-23T14:16:14.913Z,9.45
2022-12-23T14:19:04.624Z,9.27
2022-12-23T14:21:44.623Z,10.10
2022-12-23T14:24:37.972Z,13.23
2022-12-23T14:27:40.345Z,9.18
2022-12-23T14:30:14.641Z,11.18
2022-12-23T14:32:48.115Z,9.30
2022-12-23T14:35:28.508Z,9.93
2022-12-23T14:38:23.478Z,10.30
2022-12-23T14:41:00.003Z,10.93
2022-12-23T14:43:33.636Z,10.83
2022-12-23T14:46:05.024Z,11.77
2022-12-23T14:49:37.638Z,9.10
2022-12-23T14:52:44.721Z,11.02
2022-12-23T14:55:52.854Z,10.55
2022-12-23T14:58:37.645Z,10.10
2022-12-23T15:01:12.368Z,8.45
2022-12-23T15:03:47.200Z,9.75
2022-12-23T15:06:24.643Z,10.50
2022-12-23T15:08:56.859Z,9.02
2022-12-23T15:11:29.732Z,8.93
2022-12-23T15:14:01.173Z,9.30
2022-12-23T15:16:32.765Z,10.27
2022-12-23T15:19:03.465Z,10.00
2022-12-23T15:21:34.219Z,11.05
2022-12-23T15:24:03.919Z,8.45
2022-12-23T15:26:33.787Z,9.20
2022-12-23T15:29:02.468Z,8.10
2022-12-23T15:31:34.598Z,7.57
2022-12-23T15:34:14.836Z,7.80
2022-12-23T15:36:46.945Z,8.52
2022-12-23T15:39:22.036Z,7.65
2022-12-23T15:41:50.756Z,9.10
2022-12-23T15:44:22.389Z,8.68
2022-12-23T15:46:51.464Z,9.50
2022-12-23T15:49:21.576Z,8.13
2022-12-23T15:52:13.869Z,9.00
2022-12-23T15:54:53.166Z,9.98
2022-12-23T15:57:25.221Z,8.95
2022-12-23T15:59:54.053Z,8.03
2022-12-23T16:05:26.660Z,9.48
2022-12-23T16:08:11.328Z,10.27
2022-12-23T16:10:41.384Z,9.13
2022-12-23T16:13:19.088Z,10.23
2022-12-23T16:15:48.428Z,10.23
2022-12-23T16:18:22.973Z,10.23
2022-12-23T16:20:53.546Z,9.30
2022-12-23T16:23:22.959Z,9.27
2022-12-23T16:25:53.997Z,8.75
2022-12-23T16:28:24.568Z,9.02
2022-12-23T16:30:55.087Z,7.50
2022-12-23T16:33:32.382Z,9.57
2022-12-23T16:36:16.891Z,7.57
2022-12-23T16:38:45.932Z,9.27
2022-12-23T16:41:15.881Z,9.43
2022-12-23T16:43:51.587Z,10.07
2022-12-23T16:46:22.455Z,9.98
2022-12-23T16:48:52.507Z,10.15
2022-12-23T16:51:22.182Z,9.88
2022-12-23T16:53:51.616Z,9.30
2022-12-23T16:56:23.270Z,9.32
2022-12-23T16:58:51.845Z,7.68
2022-12-23T17:01:24.695Z,6.78
2022-12-23T17:03:53.756Z,6.25
2022-12-23T17:06:22.745Z,6.57
2022-12-23T17:08:51.340Z,7.17
2022-12-23T17:11:25.089Z,8.75
2022-12-23T17:13:59.608Z,8.98
2022-12-23T17:16:32.002Z,11.97
2022-12-23T17:19:01.051Z,10.20
2022-12-23T17:21:32.670Z,10.13
2022-12-23T17:24:06.197Z,10.83
2022-12-23T17:26:35.843Z,11.80
2022-12-23T17:29:04.996Z,10.00
2022-12-23T17:31:34.914Z,10.53
2022-12-23T17:34:03.409Z,9.20
2022-12-23T17:36:31.846Z,9.33
2022-12-23T17:39:00.391Z,10.40
2022-12-23T17:41:31.382Z,9.63
2022-12-23T17:44:02.401Z,9.80
2022-12-23T17:46:31.163Z,9.27
2022-12-23T17:48:59.900Z,9.23
2022-12-23T17:51:29.301Z,8.10
2022-12-23T17:53:59.263Z,8.17
2022-12-23T17:56:29.512Z,7.90
2022-12-23T17:58:57.959Z,8.87
2022-12-23T18:01:29.817Z,7.57
2022-12-23T18:03:59.522Z,8.35
2022-12-23T18:06:29.746Z,9.03
2022-12-23T18:08:58.513Z,8.60
2022-12-23T18:11:33.666Z,8.23
2022-12-23T18:14:03.537Z,8.13
2022-12-23T18:16:33.548Z,7.57
2022-12-23T18:19:01.915Z,8.53
2022-12-23T18:21:30.814Z,8.80
2022-12-23T18:24:00.689Z,9.45
2022-12-23T18:26:29.083Z,9.00
2022-12-23T18:28:57.497Z,10.83
2022-12-23T18:31:27.472Z,9.20
2022-12-23T18:33:57.408Z,11.00
2022-12-23T18:36:27.873Z,10.83
2022-12-23T18:38:57.128Z,8.47
2022-12-23T18:41:27.094Z,9.52
2022-12-23T18:43:55.632Z,10.70
2022-12-23T18:46:24.106Z,10.43
2022-12-23T18:48:52.755Z,11.50
2022-12-23T18:51:23.521Z,10.80
2022-12-23T18:53:51.856Z,9.70
2022-12-23T18:56:21.404Z,11.57
2022-12-23T18:58:50.371Z,10.77
2022-12-23T19:01:19.320Z,8.80
2022-12-23T19:03:48.282Z,9.23
2022-12-23T19:06:17.638Z,10.73
2022-12-23T19:08:49.798Z,9.73
2022-12-23T19:11:20.816Z,9.47
2022-12-23T19:13:49.671Z,12.93
2022-12-23T19:16:20.116Z,9.60
2022-12-23T19:18:49.292Z,9.60
2022-12-23T19:21:18.744Z,11.03
2022-12-23T19:23:48.417Z,10.97
2022-12-23T19:26:17.149Z,10.52
2022-12-23T19:28:48.119Z,9.85
2022-12-23T19:31:18.202Z,7.97
2022-12-23T19:33:47.749Z,10.47
2022-12-23T19:36:17.542Z,9.50
2022-12-23T19:38:47.458Z,11.97
2022-12-23T19:41:16.283Z,10.73
2022-12-23T19:43:46.016Z,10.03
2022-12-23T19:46:15.937Z,10.45
2022-12-23T19:48:44.748Z,10.80
2022-12-23T19:51:15.127Z,9.75
2022-12-23T19:53:46.109Z,12.53
2022-12-23T19:56:21.015Z,10.90
2022-12-23T19:58:50.273Z,11.73
2022-12-23T20:01:20.700Z,11.23
2022-12-23T20:03:50.013Z,9.90
2022-12-23T20:06:20.810Z,10.95
2022-12-23T20:08:50.294Z,11.70
2022-12-23T20:11:25.914Z,11.35
2022-12-23T20:13:55.816Z,11.60
2022-12-23T20:16:24.704Z,11.07
2022-12-23T20:18:53.255Z,11.73
2022-12-23T20:21:22.318Z,13.43
2022-12-23T20:23:50.975Z,10.73
2022-12-23T20:26:21.507Z,11.17
2022-12-23T20:28:49.891Z,12.77
2022-12-23T20:31:20.336Z,11.63
2022-12-23T20:33:49.202Z,11.70
2022-12-23T20:36:19.650Z,12.07
2022-12-23T20:38:48.992Z,11.40
2022-12-23T20:41:18.969Z,13.03
2022-12-23T20:44:23.316Z,11.17
2022-12-23T20:46:37.741Z,10.80
2022-12-23T20:49:06.127Z,11.30
2022-12-23T20:51:34.867Z,11.73
2022-12-23T20:54:03.180Z,9.70
2022-12-23T20:56:31.861Z,10.20
2022-12-23T20:59:02.701Z,9.52
2022-12-23T21:01:33.332Z,9.25
2022-12-23T21:04:04.451Z,9.60
2022-12-23T21:06:33.577Z,9.27
2022-12-23T21:09:04.940Z,10.53
2022-12-23T21:11:34.981Z,10.63
2022-12-23T21:14:07.180Z,10.83
2022-12-23T21:16:37.257Z,9.60
2022-12-23T21:19:06.376Z,10.93
2022-12-23T21:21:34.662Z,11.80
2022-12-23T21:24:05.138Z,11.07
2022-12-23T21:26:34.910Z,11.00
2022-12-23T21:29:07.079Z,11.43
2022-12-23T21:31:38.076Z,10.23
2022-12-23T21:34:07.150Z,9.43
2022-12-23T21:36:37.647Z,10.50
2022-12-23T21:39:06.401Z,11.07
2022-12-23T21:41:37.688Z,11.10
2022-12-23T21:44:07.955Z,10.70
2022-12-23T21:46:36.512Z,10.10
2022-12-23T21:49:05.282Z,9.80
2022-12-23T21:51:40.234Z,10.67
2022-12-23T21:54:10.448Z,9.73
2022-12-23T21:56:39.712Z,9.77
2022-12-23T21:59:12.750Z,9.47
2022-12-23T22:01:41.382Z,9.73
2022-12-23T22:04:09.939Z,8.97
2022-12-23T22:06:39.587Z,8.97
2022-12-23T22:09:09.347Z,8.50
2022-12-23T22:11:38.628Z,9.63
2022-12-23T22:14:09.749Z,10.07
2022-12-23T22:16:38.517Z,9.03
2022-12-23T22:19:08.725Z,10.50
2022-12-23T22:21:39.672Z,9.77
2022-12-23T22:24:08.931Z,10.20
2022-12-23T22:26:37.591Z,11.87
2022-12-23T22:29:07.733Z,10.73
2022-12-23T22:31:41.403Z,9.53
2022-12-23T22:34:11.421Z,11.43
2022-12-23T22:36:40.065Z,11.20
2022-12-23T22:39:10.774Z,10.47
2022-12-23T22:41:40.398Z,11.77
2022-12-23T22:44:09.276Z,12.83
2022-12-23T22:46:38.971Z,11.40
2022-12-23T22:49:07.539Z,10.40
2022-12-23T22:51:35.937Z,9.97
2022-12-23T22:54:04.628Z,10.13
2022-12-23T22:56:33.030Z,11.73
2022-12-23T22:59:01.340Z,11.37
2022-12-23T23:01:31.809Z,10.30
2022-12-23T23:04:03.385Z,10.27
2022-12-23T23:06:33.127Z,10.10
2022-12-23T23:09:02.392Z,9.87
2022-12-23T23:11:31.245Z,9.10
2022-12-23T23:13:59.747Z,10.47
2022-12-23T23:16:28.547Z,10.70
2022-12-23T23:18:58.726Z,9.80
2022-12-23T23:21:28.678Z,10.13
2022-12-23T23:23:57.143Z,9.77
2022-12-23T23:26:27.360Z,10.93
2022-12-23T23:28:56.783Z,9.77
2022-12-23T23:31:42.024Z,9.70
2022-12-23T23:34:11.489Z,9.33
2022-12-23T23:36:41.840Z,9.53
2022-12-23T23:39:12.313Z,10.63
2022-12-23T23:41:41.305Z,11.17
2022-12-23T23:44:09.638Z,11.00
2022-12-23T23:46:38.104Z,12.73
2022-12-23T23:49:06.898Z,13.97
2022-12-23T23:51:35.859Z,16.10
2022-12-23T23:54:05.778Z,13.93
2022-12-23T23:56:38.601Z,13.03
2022-12-23T23:59:07.882Z,10.73
